Saturday, November 18, 2017, 6:16 PM EST
Back to Local

KAFN, Jaffrey Muni-silver Ranch

Location: Jaffrey, NH, United States Lat: 42.8
Local Time: 6:16 PM EST (23:16 GMT) Lon: -72
Time Zone: US/Eastern Elev: 1040 ft

Show me the last for .
Show Decoded

2017-11-18 17:52 METAR KAFN 182252Z AUTO 00000KT 10SM BKN022 OVC047 03/02 A2964 RMK AO2 RAE31
                 SLP053 P0000 T00280022 TSNO =
2017-11-18 17:23 METAR KAFN 182223Z AUTO 00000KT 10SM -RA BKN022 BKN037 OVC048 03/02 A2965 RMK
                 AO2 P0000 T00280017 TSNO =
2017-11-18 16:52 METAR KAFN 182152Z AUTO 00000KT 10SM -RA BKN036 OVC047 03/01 A2966 RMK AO2
                 RAE00B40 SLP061 P0000 T00330011 TSNO =
2017-11-18 15:52 METAR KAFN 182052Z AUTO 00000KT 10SM -RA OVC060 03/00 A2968 RMK AO2 RAB16 SLP068
                 P0000 60000 T00330000 56025 TSNO =
2017-11-18 14:52 METAR KAFN 181952Z AUTO 20007KT 10SM OVC095 04/M03 A2970 RMK AO2 SLP072
                 T00441028 TSNO =
2017-11-18 13:52 METAR KAFN 181852Z AUTO 20008KT 10SM BKN120 04/M06 A2973 RMK AO2 SLP085
                 T00391056 TSNO =
2017-11-18 12:52 METAR KAFN 181752Z AUTO 20008KT 10SM BKN085 OVC110 04/M06 A2976 RMK AO2 SLP093
                 T00391061 10039 21056 58037 TSNO =
2017-11-18 11:52 METAR KAFN 181652Z AUTO VRB05KT 10SM CLR 04/M08 A2980 RMK AO2 SLP105 T00391078
                 TSNO =
2017-11-18 10:52 METAR KAFN 181552Z AUTO 22005KT 10SM CLR 02/M08 A2984 RMK AO2 SLP121 T00221083
                 TSNO =
2017-11-18 09:52 METAR KAFN 181452Z AUTO 22003KT 10SM CLR 01/M09 A2987 RMK AO2 SLP132 T00111089
                 58021 TSNO =
2017-11-18 08:52 METAR KAFN 181352Z AUTO 00000KT 10SM CLR M01/M08 A2990 RMK AO2 SLP141 T10061083
                 TSNO =
2017-11-18 07:52 METAR KAFN 181252Z AUTO 20003KT 10SM CLR M03/M07 A2992 RMK AO2 SLP148 T10281072
                 TSNO =
2017-11-18 06:52 METAR KAFN 181152Z AUTO 17004KT 10SM CLR M06/M08 A2994 RMK AO2 SLP156 T10561078
                 11022 21056 53003 TSNO =
2017-11-18 05:52 METAR KAFN 181052Z AUTO 00000KT 10SM CLR M06/M08 A2992 RMK AO2 SLP151 T10561078
                 TSNO =
2017-11-18 04:52 METAR KAFN 180952Z AUTO 00000KT 10SM CLR M06/M07 A2993 RMK AO2 SLP153 T10561072
                 TSNO =
2017-11-18 03:52 METAR KAFN 180852Z AUTO 00000KT 10SM CLR M05/M08 A2993 RMK AO2 SLP152 T10501078
                 55008 TSNO =
2017-11-18 02:52 METAR KAFN 180752Z AUTO 00000KT 10SM CLR M04/M08 A2992 RMK AO2 SLP150 T10441083
                 TSNO =
2017-11-18 01:52 METAR KAFN 180652Z AUTO 00000KT 10SM CLR M04/M08 A2995 RMK AO2 SLP158 T10441083
                 TSNO =
2017-11-18 00:52 METAR KAFN 180552Z AUTO 00000KT 10SM CLR M02/M10 A2995 RMK AO2 SLP159 T10221100
                 10017 21033 56003 TSNO =
2017-11-17 23:52 METAR KAFN 180452Z AUTO 00000KT 10SM CLR M03/M09 A2996 RMK AO2 SLP163 T10331089
                 400391033 TSNO =
2017-11-17 22:52 METAR KAFN 180352Z AUTO 00000KT 10SM CLR M01/M10 A2996 RMK AO2 SLP161 T10111100
                 TSNO =
2017-11-17 21:52 METAR KAFN 180252Z AUTO 00000KT 10SM CLR M01/M09 A2996 RMK AO2 SLP164 T10111094
                 51004 TSNO =
2017-11-17 20:52 METAR KAFN 180152Z AUTO 13005KT 10SM CLR 00/M11 A2996 RMK AO2 SLP160 T00001106
                 TSNO =
2017-11-17 19:52 METAR KAFN 180052Z AUTO 31008KT 280V340 10SM CLR 02/M12 A2996 RMK AO2 SLP162
                 T00171117 TSNO =
2017-11-17 18:52 METAR KAFN 172352Z AUTO VRB05KT 10SM CLR 01/M10 A2995 RMK AO2 SLP158 T00111100
                 10033 20011 51009 TSNO =

Support USWX by starting your Amazon purchase here.